createdAt,value
2023-04-15T00:01:20.907Z,7.98
2023-04-15T00:03:56.252Z,7.97
2023-04-15T00:06:24.788Z,8.02
2023-04-15T00:08:53.077Z,7.97
2023-04-15T00:11:22.413Z,7.96
2023-04-15T00:13:50.423Z,7.93
2023-04-15T00:16:42.098Z,7.92
2023-04-15T00:19:10.324Z,7.93
2023-04-15T00:21:40.056Z,7.95
2023-04-15T00:24:08.399Z,7.94
2023-04-15T00:26:39.589Z,7.93
2023-04-15T00:29:10.119Z,7.93
2023-04-15T00:31:39.882Z,7.93
2023-04-15T00:34:09.377Z,7.91
2023-04-15T00:36:37.665Z,7.89
2023-04-15T00:39:08.102Z,7.87
2023-04-15T00:41:39.165Z,7.86
2023-04-15T00:44:08.062Z,7.81
2023-04-15T00:46:39.865Z,7.78
2023-04-15T00:49:08.402Z,7.76
2023-04-15T00:51:37.161Z,7.74
2023-04-15T00:54:07.829Z,7.73
2023-04-15T00:56:38.116Z,7.70
2023-04-15T00:59:07.033Z,7.70
2023-04-15T01:01:39.380Z,7.69
2023-04-15T01:04:10.157Z,7.69
2023-04-15T01:06:38.671Z,7.65
2023-04-15T01:09:06.576Z,7.62
2023-04-15T01:11:35.435Z,7.59
2023-04-15T01:14:06.040Z,7.58
2023-04-15T01:16:34.083Z,7.56
2023-04-15T01:19:03.724Z,7.57
2023-04-15T01:21:31.758Z,7.56
2023-04-15T01:24:00.953Z,7.55
2023-04-15T01:26:30.922Z,7.50
2023-04-15T01:28:58.915Z,7.46
2023-04-15T01:31:27.590Z,7.49
2023-04-15T01:33:56.023Z,7.54
2023-04-15T01:36:23.869Z,7.50
2023-04-15T01:38:54.900Z,7.52
2023-04-15T01:41:26.800Z,7.50
2023-04-15T01:43:57.403Z,7.50
2023-04-15T01:46:25.787Z,7.53
2023-04-15T01:48:54.833Z,7.52
2023-04-15T01:51:23.227Z,7.50
2023-04-15T01:53:52.278Z,7.52
2023-04-15T01:56:20.369Z,7.52
2023-04-15T01:58:48.471Z,7.51
2023-04-15T02:01:19.764Z,7.46
2023-04-15T02:03:48.772Z,7.45
2023-04-15T02:06:17.156Z,7.44
2023-04-15T02:08:45.928Z,7.41
2023-04-15T02:11:16.015Z,7.38
2023-04-15T02:13:44.455Z,7.37
2023-04-15T02:16:20.655Z,7.37
2023-04-15T02:18:49.075Z,7.38
2023-04-15T02:21:19.493Z,7.38
2023-04-15T02:23:48.348Z,7.38
2023-04-15T02:26:16.952Z,7.41
2023-04-15T02:28:45.319Z,7.38
2023-04-15T02:31:16.163Z,7.39
2023-04-15T02:33:46.068Z,7.34
2023-04-15T02:36:14.574Z,7.31
2023-04-15T02:38:43.373Z,7.29
2023-04-15T02:41:11.371Z,7.28
2023-04-15T02:43:40.060Z,7.24
2023-04-15T02:46:14.342Z,7.23
2023-04-15T02:48:42.884Z,7.23
2023-04-15T02:51:16.731Z,7.19
2023-04-15T02:53:44.843Z,7.14
2023-04-15T02:56:12.800Z,7.13
2023-04-15T02:58:41.381Z,7.12
2023-04-15T03:01:09.815Z,7.10
2023-04-15T03:03:38.513Z,7.09
2023-04-15T03:06:07.089Z,7.07
2023-04-15T03:08:42.165Z,7.05
2023-04-15T03:11:12.400Z,7.02
2023-04-15T03:13:43.343Z,6.99
2023-04-15T03:16:22.332Z,6.94
2023-04-15T03:18:50.494Z,6.90
2023-04-15T03:21:19.857Z,6.92
2023-04-15T03:23:51.749Z,6.93
2023-04-15T03:26:28.097Z,6.91
2023-04-15T03:28:59.575Z,6.87
2023-04-15T03:31:27.683Z,6.85
2023-04-15T03:33:55.864Z,6.81
2023-04-15T03:36:24.712Z,6.75
2023-04-15T03:38:53.955Z,6.76
2023-04-15T03:41:22.598Z,6.70
2023-04-15T03:43:52.194Z,6.70
2023-04-15T03:46:20.398Z,6.72
2023-04-15T03:48:48.589Z,6.68
2023-04-15T03:51:17.092Z,6.66
2023-04-15T03:53:44.958Z,6.65
2023-04-15T03:56:14.157Z,6.69
2023-04-15T03:58:44.159Z,6.71
2023-04-15T04:01:12.158Z,6.70
2023-04-15T04:03:40.330Z,6.69
2023-04-15T04:06:08.460Z,6.69
2023-04-15T04:08:36.285Z,6.69
2023-04-15T04:11:07.100Z,6.71
2023-04-15T04:13:36.741Z,6.69
2023-04-15T04:16:06.203Z,6.68
2023-04-15T04:18:34.715Z,6.68
2023-04-15T04:21:02.683Z,6.65
2023-04-15T04:23:30.599Z,6.65
2023-04-15T04:25:58.679Z,6.64
2023-04-15T04:28:26.950Z,6.64
2023-04-15T04:30:58.870Z,6.67
2023-04-15T04:33:26.806Z,6.67
2023-04-15T04:35:54.783Z,6.68
2023-04-15T04:38:22.761Z,6.69
2023-04-15T04:40:50.745Z,6.70
2023-04-15T04:43:18.927Z,6.68
2023-04-15T04:45:46.894Z,6.68
2023-04-15T04:48:17.059Z,6.73
2023-04-15T04:50:47.058Z,6.75
2023-04-15T04:53:16.130Z,6.75
2023-04-15T04:55:44.433Z,6.76
2023-04-15T04:58:14.877Z,6.79
2023-04-15T05:00:43.350Z,6.83
2023-04-15T05:03:15.493Z,6.84
2023-04-15T05:05:44.936Z,6.84
2023-04-15T05:08:14.409Z,6.84
2023-04-15T05:10:43.322Z,6.82
2023-04-15T05:13:12.605Z,6.83
2023-04-15T05:15:41.390Z,6.84
2023-04-15T05:18:09.644Z,6.86
2023-04-15T05:20:37.497Z,6.90
2023-04-15T05:23:06.907Z,6.98
2023-04-15T05:25:35.251Z,6.99
2023-04-15T05:28:03.441Z,7.03
2023-04-15T05:30:31.362Z,7.03
2023-04-15T05:32:59.533Z,7.09
2023-04-15T05:35:28.561Z,7.15
2023-04-15T05:37:56.407Z,7.20
2023-04-15T05:40:28.206Z,7.29
2023-04-15T05:42:58.546Z,7.38
2023-04-15T05:45:27.904Z,7.46
2023-04-15T05:47:56.129Z,7.52
2023-04-15T05:50:23.979Z,7.57
2023-04-15T05:52:51.819Z,7.66
2023-04-15T05:55:20.254Z,7.70
2023-04-15T05:57:49.425Z,7.79
2023-04-15T06:00:21.315Z,7.84
2023-04-15T06:02:49.955Z,7.95
2023-04-15T06:05:19.141Z,8.01
2023-04-15T06:07:48.556Z,8.09
2023-04-15T06:10:17.940Z,8.19
2023-04-15T06:12:45.945Z,8.26
2023-04-15T06:15:15.384Z,8.30
2023-04-15T06:17:46.213Z,8.40
2023-04-15T06:20:14.826Z,8.48
2023-04-15T06:22:42.683Z,8.50
2023-04-15T06:25:13.157Z,8.60
2023-04-15T06:27:41.461Z,8.67
2023-04-15T06:30:10.549Z,8.75
2023-04-15T06:32:40.946Z,8.81
2023-04-15T06:35:09.519Z,8.87
2023-04-15T06:37:37.388Z,8.89
2023-04-15T06:40:06.753Z,8.96
2023-04-15T06:42:35.038Z,9.05
2023-04-15T06:45:03.598Z,9.13
2023-04-15T06:47:32.945Z,9.22
2023-04-15T06:50:03.971Z,9.31
2023-04-15T06:52:32.789Z,9.37
2023-04-15T06:55:01.030Z,9.43
2023-04-15T06:57:31.589Z,9.48
2023-04-15T07:00:01.205Z,9.54
2023-04-15T07:02:30.259Z,9.63
2023-04-15T07:04:58.538Z,9.74
2023-04-15T07:07:27.736Z,9.83
2023-04-15T07:09:56.352Z,9.87
2023-04-15T07:12:24.481Z,10.01
2023-04-15T07:14:52.370Z,10.05
2023-04-15T07:17:20.851Z,10.13
2023-04-15T07:19:49.291Z,10.18
2023-04-15T07:22:17.301Z,10.25
2023-04-15T07:24:47.730Z,10.34
2023-04-15T07:27:17.917Z,10.40
2023-04-15T07:29:46.952Z,10.53
2023-04-15T07:32:14.826Z,10.59
2023-04-15T07:34:45.626Z,10.69
2023-04-15T07:37:13.898Z,10.78
2023-04-15T07:39:42.691Z,10.83
2023-04-15T07:42:12.175Z,10.91
2023-04-15T07:44:40.486Z,10.96
2023-04-15T07:47:09.618Z,11.01
2023-04-15T07:49:37.763Z,11.08
2023-04-15T07:52:05.945Z,11.14
2023-04-15T07:54:33.897Z,11.21
2023-04-15T07:57:03.429Z,11.27
2023-04-15T07:59:33.491Z,11.33
2023-04-15T08:02:01.767Z,11.44
2023-04-15T08:04:30.357Z,11.55
2023-04-15T08:06:59.080Z,11.67
2023-04-15T08:09:27.203Z,11.75
2023-04-15T08:11:56.808Z,11.91
2023-04-15T08:14:25.755Z,12.00
2023-04-15T08:16:55.737Z,12.10
2023-04-15T08:19:24.286Z,12.25
2023-04-15T08:21:52.917Z,12.41
2023-04-15T08:24:21.306Z,12.53
2023-04-15T08:26:49.178Z,12.59
2023-04-15T08:29:18.031Z,12.67
2023-04-15T08:31:46.253Z,12.77
2023-04-15T08:34:16.047Z,12.84
2023-04-15T08:36:44.322Z,12.93
2023-04-15T08:39:12.510Z,12.94
2023-04-15T08:41:44.027Z,12.96
2023-04-15T08:44:12.345Z,13.06
2023-04-15T08:46:40.847Z,13.18
2023-04-15T08:49:12.280Z,13.31
2023-04-15T08:51:42.345Z,13.42
2023-04-15T08:54:13.892Z,13.53
2023-04-15T08:56:42.613Z,13.59
2023-04-15T08:59:11.464Z,13.62
2023-04-15T09:01:39.907Z,13.57
2023-04-15T09:04:08.400Z,13.62
2023-04-15T09:06:37.027Z,13.63
2023-04-15T09:09:07.047Z,13.68
2023-04-15T09:11:38.220Z,13.69
2023-04-15T09:14:06.997Z,13.73
2023-04-15T09:17:00.858Z,13.68
2023-04-15T09:19:29.292Z,13.65
2023-04-15T09:21:59.565Z,13.66
2023-04-15T09:24:38.048Z,13.63
2023-04-15T09:27:08.618Z,13.60
2023-04-15T09:29:37.379Z,13.53
2023-04-15T09:32:12.628Z,13.57
2023-04-15T09:34:40.653Z,13.54
2023-04-15T09:37:10.965Z,13.42
2023-04-15T09:39:50.530Z,13.45
2023-04-15T09:42:24.763Z,13.39
2023-04-15T09:44:53.710Z,13.32
2023-04-15T09:47:32.333Z,13.34
2023-04-15T09:50:02.438Z,13.34
2023-04-15T09:52:38.046Z,13.38
2023-04-15T09:55:09.219Z,13.29
2023-04-15T09:57:38.461Z,13.29
2023-04-15T10:00:08.127Z,13.27
2023-04-15T10:02:37.371Z,13.23
2023-04-15T10:05:07.345Z,13.13
2023-04-15T10:07:35.879Z,13.15
2023-04-15T10:10:09.774Z,13.22
2023-04-15T10:12:42.245Z,13.36
2023-04-15T10:15:16.386Z,13.52
2023-04-15T10:17:45.625Z,13.67
2023-04-15T10:20:15.931Z,13.80
2023-04-15T10:22:46.364Z,13.97
2023-04-15T10:25:16.922Z,14.01
2023-04-15T10:27:46.430Z,13.99
2023-04-15T10:30:14.641Z,13.93
2023-04-15T10:32:46.443Z,13.77
2023-04-15T10:35:15.507Z,13.65
2023-04-15T10:37:49.170Z,13.61
2023-04-15T10:40:27.305Z,13.51
2023-04-15T10:42:57.902Z,13.46
2023-04-15T10:45:29.624Z,13.45
2023-04-15T10:48:06.629Z,13.39
2023-04-15T10:50:34.737Z,13.48
2023-04-15T10:53:05.060Z,13.50
2023-04-15T10:55:34.646Z,13.46
2023-04-15T10:58:04.837Z,13.50
2023-04-15T11:00:35.730Z,13.50
2023-04-15T11:03:08.178Z,13.44
2023-04-15T11:05:53.699Z,13.34
2023-04-15T11:08:42.273Z,13.25
2023-04-15T11:11:58.235Z,13.10
2023-04-15T11:14:29.111Z,12.99
2023-04-15T11:16:57.120Z,12.85
2023-04-15T11:19:27.310Z,12.72
2023-04-15T11:21:56.199Z,12.71
2023-04-15T11:24:27.652Z,12.73
2023-04-15T11:26:58.750Z,12.81
2023-04-15T11:29:32.813Z,12.82
2023-04-15T11:32:07.980Z,12.88
2023-04-15T11:34:36.687Z,12.98
2023-04-15T11:37:06.550Z,13.01
2023-04-15T11:39:35.731Z,12.91
2023-04-15T11:42:03.880Z,12.94
2023-04-15T11:44:33.812Z,12.74
2023-04-15T11:47:01.608Z,12.72
2023-04-15T11:49:30.815Z,12.73
2023-04-15T11:51:58.748Z,12.67
2023-04-15T11:54:27.031Z,12.69
2023-04-15T11:56:56.635Z,12.82
2023-04-15T11:59:38.940Z,12.81
2023-04-15T12:02:15.503Z,12.81
2023-04-15T12:04:46.257Z,12.69
2023-04-15T12:07:16.623Z,12.66
2023-04-15T12:09:56.740Z,12.70
2023-04-15T12:12:28.893Z,12.73
2023-04-15T12:14:59.374Z,12.72
2023-04-15T12:17:29.458Z,12.73
2023-04-15T12:20:23.349Z,12.61
2023-04-15T12:22:53.877Z,12.53
2023-04-15T12:25:35.367Z,12.60
2023-04-15T12:28:03.772Z,12.45
2023-04-15T12:30:32.167Z,12.36
2023-04-15T12:33:03.026Z,12.33
2023-04-15T12:35:31.807Z,12.19
2023-04-15T12:37:59.930Z,12.18
2023-04-15T12:40:28.043Z,12.20
2023-04-15T12:42:56.505Z,12.11
2023-04-15T12:45:24.752Z,12.25
2023-04-15T12:47:52.956Z,12.09
2023-04-15T12:50:22.207Z,12.16
2023-04-15T12:52:50.758Z,12.36
2023-04-15T12:55:19.251Z,12.32
2023-04-15T12:57:47.219Z,12.30
2023-04-15T13:00:16.456Z,12.32
2023-04-15T13:02:45.320Z,12.31
2023-04-15T13:05:14.695Z,12.33
2023-04-15T13:07:43.905Z,12.30
2023-04-15T13:10:13.300Z,12.35
2023-04-15T13:12:41.678Z,12.33
2023-04-15T13:15:11.517Z,12.48
2023-04-15T13:17:39.838Z,12.36
2023-04-15T13:20:08.917Z,12.18
2023-04-15T13:22:36.837Z,12.27
2023-04-15T13:25:07.939Z,12.14
2023-04-15T13:27:39.611Z,11.95
2023-04-15T13:30:08.494Z,11.78
2023-04-15T13:32:36.515Z,11.69
2023-04-15T13:35:05.207Z,11.78
2023-04-15T13:37:33.340Z,11.77
2023-04-15T13:40:01.690Z,11.70
2023-04-15T13:42:43.374Z,11.72
2023-04-15T13:45:13.416Z,11.76
2023-04-15T13:47:43.483Z,11.70
2023-04-15T13:50:12.024Z,11.64
2023-04-15T13:52:41.393Z,11.61
2023-04-15T13:55:19.899Z,11.66
2023-04-15T13:57:52.352Z,11.64
2023-04-15T14:00:22.245Z,11.59
2023-04-15T14:02:51.005Z,11.53
2023-04-15T14:05:19.842Z,11.50
2023-04-15T14:07:47.987Z,11.54
2023-04-15T14:10:15.975Z,11.43
2023-04-15T14:12:44.022Z,11.40
2023-04-15T14:15:15.735Z,11.33
2023-04-15T14:17:43.929Z,11.35
2023-04-15T14:20:12.189Z,11.42
2023-04-15T14:22:42.656Z,11.42
2023-04-15T14:25:17.304Z,11.36
2023-04-15T14:27:51.557Z,11.34
2023-04-15T14:30:21.104Z,11.26
2023-04-15T14:32:49.344Z,11.28
2023-04-15T14:35:17.563Z,11.43
2023-04-15T14:37:45.557Z,11.37
2023-04-15T14:40:18.322Z,11.24
2023-04-15T14:42:48.839Z,11.20
2023-04-15T14:45:17.535Z,11.22
2023-04-15T14:47:47.006Z,11.27
2023-04-15T14:50:15.813Z,11.29
2023-04-15T14:52:44.003Z,11.34
2023-04-15T14:55:13.460Z,11.42
2023-04-15T14:57:43.208Z,11.41
2023-04-15T15:00:15.428Z,11.50
2023-04-15T15:02:44.369Z,11.65
2023-04-15T15:05:13.927Z,11.56
2023-04-15T15:07:42.502Z,11.49
2023-04-15T15:10:10.570Z,11.39
2023-04-15T15:12:38.946Z,11.31
2023-04-15T15:15:19.540Z,11.32
2023-04-15T15:17:55.792Z,11.41
2023-04-15T15:20:25.942Z,11.41
2023-04-15T15:22:57.051Z,11.35
2023-04-15T15:25:25.260Z,11.37
2023-04-15T15:27:54.061Z,11.23
2023-04-15T15:30:22.075Z,11.08
2023-04-15T15:32:49.952Z,11.14
2023-04-15T15:35:18.552Z,11.23
2023-04-15T15:37:48.520Z,11.05
2023-04-15T15:40:16.636Z,11.02
2023-04-15T15:42:50.858Z,11.02
2023-04-15T15:45:19.029Z,11.09
2023-04-15T15:47:47.006Z,10.97
2023-04-15T15:50:15.687Z,10.97
2023-04-15T15:52:44.185Z,10.98
2023-04-15T15:55:13.940Z,11.03
2023-04-15T15:57:42.102Z,11.08
2023-04-15T16:00:12.878Z,10.97
2023-04-15T16:05:15.924Z,10.86
2023-04-15T16:07:44.225Z,10.86
2023-04-15T16:10:16.297Z,10.77
2023-04-15T16:12:44.556Z,10.81
2023-04-15T16:15:13.625Z,10.83
2023-04-15T16:17:42.172Z,10.71
2023-04-15T16:20:12.330Z,10.66
2023-04-15T16:22:41.830Z,10.67
2023-04-15T16:25:10.673Z,10.82
2023-04-15T16:27:57.225Z,10.80
2023-04-15T16:30:27.332Z,10.77
2023-04-15T16:32:57.729Z,10.75
2023-04-15T16:35:25.904Z,10.63
2023-04-15T16:37:54.020Z,10.56
2023-04-15T16:40:22.018Z,10.58
2023-04-15T16:42:52.227Z,10.63
2023-04-15T16:45:33.733Z,10.75
2023-04-15T16:48:03.244Z,10.64
2023-04-15T16:50:33.853Z,10.63
2023-04-15T16:53:02.248Z,10.49
2023-04-15T16:55:30.244Z,10.51
2023-04-15T16:58:02.670Z,10.49
2023-04-15T17:00:32.125Z,10.70
2023-04-15T17:03:06.137Z,10.66
2023-04-15T17:05:35.071Z,10.50
2023-04-15T17:08:03.098Z,10.47
2023-04-15T17:10:31.775Z,10.46
2023-04-15T17:13:01.391Z,10.62
2023-04-15T17:15:29.475Z,10.50
2023-04-15T17:17:58.223Z,10.48
2023-04-15T17:20:30.132Z,10.50
2023-04-15T17:22:58.689Z,10.49
2023-04-15T17:25:26.544Z,10.50
2023-04-15T17:27:54.628Z,10.51
2023-04-15T17:30:24.792Z,10.53
2023-04-15T17:32:52.962Z,10.53
2023-04-15T17:35:24.650Z,10.60
2023-04-15T17:37:53.381Z,10.61
2023-04-15T17:40:22.379Z,10.69
2023-04-15T17:42:50.773Z,10.76
2023-04-15T17:45:18.859Z,10.88
2023-04-15T17:47:49.046Z,10.94
2023-04-15T17:50:17.289Z,10.94
2023-04-15T17:52:45.258Z,11.03
2023-04-15T17:55:13.522Z,11.07
2023-04-15T17:57:43.657Z,11.14
2023-04-15T18:00:12.641Z,11.12
2023-04-15T18:02:41.677Z,11.11
2023-04-15T18:05:11.898Z,11.13
2023-04-15T18:07:40.022Z,11.09
2023-04-15T18:10:09.677Z,11.18
2023-04-15T18:12:37.679Z,11.14
2023-04-15T18:15:06.459Z,11.17
2023-04-15T18:17:34.379Z,11.16
2023-04-15T18:20:02.666Z,11.10
2023-04-15T18:22:32.185Z,11.07
2023-04-15T18:25:04.064Z,11.05
2023-04-15T18:27:32.521Z,10.95
2023-04-15T18:30:00.829Z,10.91
2023-04-15T18:32:31.868Z,10.90
2023-04-15T18:35:00.304Z,10.91
2023-04-15T18:37:30.792Z,10.80
2023-04-15T18:40:01.642Z,10.81
2023-04-15T18:42:29.706Z,10.92
2023-04-15T18:44:57.595Z,10.80
2023-04-15T18:47:28.525Z,10.79
2023-04-15T18:49:58.430Z,10.68
2023-04-15T18:52:26.754Z,10.63
2023-04-15T18:54:54.700Z,10.60
2023-04-15T18:57:28.792Z,10.61
2023-04-15T18:59:59.585Z,10.67
2023-04-15T19:02:30.255Z,10.61
2023-04-15T19:04:58.247Z,10.56
2023-04-15T19:07:26.676Z,10.56
2023-04-15T19:09:54.694Z,10.55
2023-04-15T19:12:24.588Z,10.59
2023-04-15T19:14:52.683Z,10.65
2023-04-15T19:17:21.291Z,10.63
2023-04-15T19:19:49.482Z,10.59
2023-04-15T19:22:17.629Z,10.60
2023-04-15T19:24:46.982Z,10.56
2023-04-15T19:27:15.941Z,10.51
2023-04-15T19:29:45.723Z,10.53
2023-04-15T19:32:14.298Z,10.56
2023-04-15T19:34:42.152Z,10.56
2023-04-15T19:37:12.102Z,10.52
2023-04-15T19:39:40.078Z,10.51
2023-04-15T19:42:10.215Z,10.50
2023-04-15T19:44:42.572Z,10.50
2023-04-15T19:47:12.448Z,10.49
2023-04-15T19:49:41.076Z,10.52
2023-04-15T19:52:09.357Z,10.52
2023-04-15T19:54:37.302Z,10.52
2023-04-15T19:57:05.844Z,10.53
2023-04-15T19:59:33.986Z,10.52
2023-04-15T20:02:02.086Z,10.51
2023-04-15T20:04:31.901Z,10.52
2023-04-15T20:07:00.280Z,10.52
2023-04-15T20:09:28.119Z,10.54
2023-04-15T20:12:46.839Z,10.56
2023-04-15T20:14:46.425Z,10.56
2023-04-15T20:17:15.761Z,10.55
2023-04-15T20:19:45.221Z,10.55
2023-04-15T20:22:13.187Z,10.56
2023-04-15T20:24:41.099Z,10.56
2023-04-15T20:27:09.259Z,10.57
2023-04-15T20:29:37.726Z,10.59
2023-04-15T20:32:06.709Z,10.59
2023-04-15T20:34:35.113Z,10.60
2023-04-15T20:37:07.154Z,10.62
2023-04-15T20:39:36.459Z,10.62
2023-04-15T20:42:10.073Z,10.59
2023-04-15T20:44:38.609Z,10.60
2023-04-15T20:47:07.322Z,10.60
2023-04-15T20:49:35.910Z,10.57
2023-04-15T20:52:04.323Z,10.57
2023-04-15T20:54:33.900Z,10.66
2023-04-15T20:57:02.539Z,10.59
2023-04-15T20:59:32.399Z,10.57
2023-04-15T21:02:00.717Z,10.59
2023-04-15T21:04:28.836Z,10.58
2023-04-15T21:06:56.814Z,10.60
2023-04-15T21:09:25.379Z,10.60
2023-04-15T21:12:01.277Z,10.62
2023-04-15T21:14:29.855Z,10.59
2023-04-15T21:16:58.352Z,10.59
2023-04-15T21:19:26.737Z,10.58
2023-04-15T21:21:54.649Z,10.57
2023-04-15T21:24:22.624Z,10.55
2023-04-15T21:26:50.542Z,10.56
2023-04-15T21:29:20.239Z,10.59
2023-04-15T21:31:49.118Z,10.62
2023-04-15T21:34:17.941Z,10.62
2023-04-15T21:36:46.467Z,10.62
2023-04-15T21:39:17.326Z,10.64
2023-04-15T21:41:45.347Z,10.61
2023-04-15T21:44:14.810Z,10.61
2023-04-15T21:46:45.756Z,10.63
2023-04-15T21:49:14.486Z,10.59
2023-04-15T21:51:42.485Z,10.55
2023-04-15T21:54:10.809Z,10.57
2023-04-15T21:56:38.972Z,10.57
2023-04-15T21:59:07.587Z,10.59
2023-04-15T22:01:36.213Z,10.58
2023-04-15T22:04:07.501Z,10.59
2023-04-15T22:06:35.973Z,10.67
2023-04-15T22:09:04.186Z,10.61
2023-04-15T22:11:32.399Z,10.59
2023-04-15T22:14:00.654Z,10.57
2023-04-15T22:16:29.145Z,10.56
2023-04-15T22:18:57.205Z,10.59
2023-04-15T22:21:26.719Z,10.73
2023-04-15T22:24:35.252Z,10.59
2023-04-15T22:26:44.235Z,10.53
2023-04-15T22:29:12.137Z,10.58
2023-04-15T22:31:42.903Z,10.73
2023-04-15T22:34:14.846Z,10.64
2023-04-15T22:36:46.759Z,10.62
2023-04-15T22:39:16.918Z,10.69
2023-04-15T22:41:45.090Z,10.64
2023-04-15T22:44:14.571Z,10.62
2023-04-15T22:46:42.523Z,10.60
2023-04-15T22:49:11.026Z,10.71
2023-04-15T22:51:41.060Z,10.62
2023-04-15T22:54:10.735Z,10.57
2023-04-15T22:56:40.905Z,10.56
2023-04-15T22:59:09.103Z,10.52
2023-04-15T23:01:38.405Z,10.62
2023-04-15T23:04:23.757Z,10.60
2023-04-15T23:06:56.571Z,10.56
2023-04-15T23:09:26.624Z,10.55
2023-04-15T23:11:59.931Z,10.53
2023-04-15T23:14:28.200Z,10.54
2023-04-15T23:16:58.598Z,10.62
2023-04-15T23:19:26.668Z,10.63
2023-04-15T23:21:54.891Z,10.63
2023-04-15T23:24:23.359Z,10.66
2023-04-15T23:26:53.017Z,10.64
2023-04-15T23:29:23.507Z,10.62
2023-04-15T23:31:51.826Z,10.58
2023-04-15T23:34:20.026Z,10.59
2023-04-15T23:36:47.949Z,10.53
2023-04-15T23:39:15.740Z,10.57
2023-04-15T23:41:43.788Z,10.52
2023-04-15T23:44:13.244Z,10.48
2023-04-15T23:46:41.528Z,10.48
2023-04-15T23:49:09.795Z,10.50
2023-04-15T23:51:38.219Z,10.51
2023-04-15T23:54:06.472Z,10.53
2023-04-15T23:56:34.921Z,10.53
2023-04-15T23:59:02.764Z,10.52
